sensor_id;sensor_type;location;lat;lon;timestamp;pressure;altitude;pressure_sealevel;temperature;humidity
12666;BME280;58531;59.050;17.416;2022-08-19T00:02:16;100881.44;;;19.74;100.00
12666;BME280;58531;59.050;17.416;2022-08-19T00:04:42;100889.56;;;19.74;100.00
12666;BME280;58531;59.050;17.416;2022-08-19T00:07:11;100881.69;;;19.76;99.75
12666;BME280;58531;59.050;17.416;2022-08-19T00:09:38;100884.91;;;19.75;100.00
12666;BME280;58531;59.050;17.416;2022-08-19T00:12:05;100878.22;;;19.70;100.00
12666;BME280;58531;59.050;17.416;2022-08-19T00:14:33;100880.22;;;19.70;100.00
12666;BME280;58531;59.050;17.416;2022-08-19T00:17:00;100880.69;;;19.68;100.00
12666;BME280;58531;59.050;17.416;2022-08-19T00:19:28;100882.41;;;19.66;100.00
12666;BME280;58531;59.050;17.416;2022-08-19T00:21:55;100881.19;;;19.61;100.00
12666;BME280;58531;59.050;17.416;2022-08-19T00:24:22;100882.91;;;19.59;100.00
12666;BME280;58531;59.050;17.416;2022-08-19T00:26:49;100879.22;;;19.62;100.00
12666;BME280;58531;59.050;17.416;2022-08-19T00:29:18;100882.16;;;19.64;100.00
12666;BME280;58531;59.050;17.416;2022-08-19T00:31:47;100882.91;;;19.64;100.00
12666;BME280;58531;59.050;17.416;2022-08-19T00:34:15;100879.22;;;19.67;100.00
12666;BME280;58531;59.050;17.416;2022-08-19T00:36:42;100872.31;;;19.66;100.00
12666;BME280;58531;59.050;17.416;2022-08-19T00:39:10;100876.75;;;19.69;100.00
12666;BME280;58531;59.050;17.416;2022-08-19T00:41:36;100870.09;;;19.65;100.00
12666;BME280;58531;59.050;17.416;2022-08-19T00:44:06;100867.66;;;19.61;100.00
12666;BME280;58531;59.050;17.416;2022-08-19T00:46:34;100879.22;;;19.56;100.00
12666;BME280;58531;59.050;17.416;2022-08-19T00:49:09;100870.56;;;19.58;100.00
12666;BME280;58531;59.050;17.416;2022-08-19T00:51:37;100869.84;;;19.57;100.00
12666;BME280;58531;59.050;17.416;2022-08-19T00:54:04;100876.25;;;19.54;100.00
12666;BME280;58531;59.050;17.416;2022-08-19T00:56:32;100881.66;;;19.54;100.00
12666;BME280;58531;59.050;17.416;2022-08-19T00:58:59;100882.38;;;19.49;100.00
12666;BME280;58531;59.050;17.416;2022-08-19T01:01:27;100879.69;;;19.49;100.00
12666;BME280;58531;59.050;17.416;2022-08-19T01:03:53;100879.41;;;19.42;100.00
12666;BME280;58531;59.050;17.416;2022-08-19T01:06:22;100877.69;;;19.44;100.00
12666;BME280;58531;59.050;17.416;2022-08-19T01:08:48;100876.94;;;19.44;100.00
12666;BME280;58531;59.050;17.416;2022-08-19T01:11:15;100879.66;;;19.44;100.00
12666;BME280;58531;59.050;17.416;2022-08-19T01:13:43;100876.47;;;19.45;100.00
12666;BME280;58531;59.050;17.416;2022-08-19T01:16:12;100874.25;;;19.49;100.00
12666;BME280;58531;59.050;17.416;2022-08-19T01:18:42;100864.91;;;19.50;100.00
12666;BME280;58531;59.050;17.416;2022-08-19T01:21:14;100871.81;;;19.51;100.00
12666;BME280;58531;59.050;17.416;2022-08-19T01:23:44;100875.25;;;19.46;100.00
12666;BME280;58531;59.050;17.416;2022-08-19T01:26:15;100869.81;;;19.46;100.00
12666;BME280;58531;59.050;17.416;2022-08-19T01:28:44;100881.63;;;19.43;100.00
12666;BME280;58531;59.050;17.416;2022-08-19T01:31:14;100872.75;;;19.37;100.00
12666;BME280;58531;59.050;17.416;2022-08-19T01:33:42;100874.00;;;19.47;100.00
12666;BME280;58531;59.050;17.416;2022-08-19T01:36:11;100882.13;;;19.47;100.00
12666;BME280;58531;59.050;17.416;2022-08-19T01:38:42;100885.56;;;19.42;100.00
12666;BME280;58531;59.050;17.416;2022-08-19T01:41:11;100886.28;;;19.43;100.00
12666;BME280;58531;59.050;17.416;2022-08-19T01:43:38;100887.53;;;19.42;100.00
12666;BME280;58531;59.050;17.416;2022-08-19T01:46:06;100884.31;;;19.38;100.00
12666;BME280;58531;59.050;17.416;2022-08-19T01:48:34;100881.13;;;19.39;100.00
12666;BME280;58531;59.050;17.416;2022-08-19T01:51:03;100884.81;;;19.36;100.00
12666;BME280;58531;59.050;17.416;2022-08-19T01:53:30;100878.16;;;19.37;100.00
12666;BME280;58531;59.050;17.416;2022-08-19T01:55:57;100878.91;;;19.43;100.00
12666;BME280;58531;59.050;17.416;2022-08-19T01:58:29;100877.19;;;19.40;100.00
12666;BME280;58531;59.050;17.416;2022-08-19T02:00:58;100885.06;;;19.38;100.00
12666;BME280;58531;59.050;17.416;2022-08-19T02:03:24;100878.16;;;19.43;100.00
12666;BME280;58531;59.050;17.416;2022-08-19T02:05:55;100881.84;;;19.40;100.00
12666;BME280;58531;59.050;17.416;2022-08-19T02:08:22;100870.28;;;19.39;100.00
12666;BME280;58531;59.050;17.416;2022-08-19T02:10:49;100872.50;;;19.41;100.00
12666;BME280;58531;59.050;17.416;2022-08-19T02:13:16;100880.41;;;19.44;100.00
12666;BME280;58531;59.050;17.416;2022-08-19T02:15:44;100879.16;;;19.40;100.00
12666;BME280;58531;59.050;17.416;2022-08-19T02:18:11;100887.53;;;19.36;100.00
12666;BME280;58531;59.050;17.416;2022-08-19T02:20:39;100885.56;;;19.37;100.00
12666;BME280;58531;59.050;17.416;2022-08-19T02:23:07;100876.69;;;19.36;100.00
12666;BME280;58531;59.050;17.416;2022-08-19T02:25:34;100876.44;;;19.34;100.00
12666;BME280;58531;59.050;17.416;2022-08-19T02:28:01;100881.84;;;19.34;100.00
12666;BME280;58531;59.050;17.416;2022-08-19T02:30:28;100888.50;;;19.33;100.00
12666;BME280;58531;59.050;17.416;2022-08-19T02:32:56;100883.06;;;19.33;100.00
12666;BME280;58531;59.050;17.416;2022-08-19T02:35:23;100885.31;;;19.35;100.00
12666;BME280;58531;59.050;17.416;2022-08-19T02:37:50;100881.38;;;19.36;100.00
12666;BME280;58531;59.050;17.416;2022-08-19T02:40:34;100886.03;;;19.35;100.00
12666;BME280;58531;59.050;17.416;2022-08-19T02:43:02;100892.16;;;19.25;100.00
12666;BME280;58531;59.050;17.416;2022-08-19T02:45:32;100889.72;;;19.27;100.00
12666;BME280;58531;59.050;17.416;2022-08-19T02:48:00;100898.09;;;19.29;100.00
12666;BME280;58531;59.050;17.416;2022-08-19T02:50:28;100895.84;;;19.22;100.00
12666;BME280;58531;59.050;17.416;2022-08-19T02:52:54;100900.28;;;19.25;100.00
12666;BME280;58531;59.050;17.416;2022-08-19T02:55:21;100899.06;;;19.31;100.00
12666;BME280;58531;59.050;17.416;2022-08-19T02:57:48;100896.38;;;19.31;100.00
12666;BME280;58531;59.050;17.416;2022-08-19T03:00:16;100899.31;;;19.28;100.00
12666;BME280;58531;59.050;17.416;2022-08-19T03:02:42;100903.00;;;19.30;100.00
12666;BME280;58531;59.050;17.416;2022-08-19T03:05:10;100907.72;;;19.35;100.00
12666;BME280;58531;59.050;17.416;2022-08-19T03:07:38;100899.84;;;19.37;100.00
12666;BME280;58531;59.050;17.416;2022-08-19T03:10:06;100897.59;;;19.25;100.00
12666;BME280;58531;59.050;17.416;2022-08-19T03:12:35;100892.38;;;19.21;100.00
12666;BME280;58531;59.050;17.416;2022-08-19T03:15:03;100897.03;;;19.15;100.00
12666;BME280;58531;59.050;17.416;2022-08-19T03:17:31;100898.25;;;19.14;100.00
12666;BME280;58531;59.050;17.416;2022-08-19T03:19:58;100902.00;;;19.22;100.00
12666;BME280;58531;59.050;17.416;2022-08-19T03:22:26;100904.94;;;19.19;100.00
12666;BME280;58531;59.050;17.416;2022-08-19T03:24:53;100910.59;;;19.21;100.00
12666;BME280;58531;59.050;17.416;2022-08-19T03:27:19;100908.13;;;19.17;100.00
12666;BME280;58531;59.050;17.416;2022-08-19T03:29:46;100913.03;;;19.13;100.00
12666;BME280;58531;59.050;17.416;2022-08-19T03:32:13;100916.50;;;19.19;100.00
12666;BME280;58531;59.050;17.416;2022-08-19T03:34:40;100915.47;;;19.11;100.00
12666;BME280;58531;59.050;17.416;2022-08-19T03:37:08;100912.50;;;19.09;100.00
12666;BME280;58531;59.050;17.416;2022-08-19T03:39:38;100908.81;;;19.12;100.00
12666;BME280;58531;59.050;17.416;2022-08-19T03:42:05;100909.59;;;19.18;100.00
12666;BME280;58531;59.050;17.416;2022-08-19T03:44:32;100910.56;;;19.15;100.00
12666;BME280;58531;59.050;17.416;2022-08-19T03:47:01;100907.38;;;19.17;100.00
12666;BME280;58531;59.050;17.416;2022-08-19T03:49:31;100910.78;;;19.12;100.00
12666;BME280;58531;59.050;17.416;2022-08-19T03:51:58;100914.75;;;19.16;100.00
12666;BME280;58531;59.050;17.416;2022-08-19T03:54:27;100912.56;;;19.20;100.00
12666;BME280;58531;59.050;17.416;2022-08-19T03:56:56;100917.75;;;19.24;100.00
12666;BME280;58531;59.050;17.416;2022-08-19T03:59:25;100910.09;;;19.22;100.00
12666;BME280;58531;59.050;17.416;2022-08-19T04:01:53;100909.59;;;19.18;100.00
12666;BME280;58531;59.050;17.416;2022-08-19T04:04:20;100910.56;;;19.15;100.00
12666;BME280;58531;59.050;17.416;2022-08-19T04:06:47;100909.91;;;19.26;100.00
12666;BME280;58531;59.050;17.416;2022-08-19T04:09:13;100911.13;;;19.30;100.00
12666;BME280;58531;59.050;17.416;2022-08-19T04:11:44;100913.63;;;19.34;100.00
12666;BME280;58531;59.050;17.416;2022-08-19T04:14:15;100917.56;;;19.44;100.00
12666;BME280;58531;59.050;17.416;2022-08-19T04:16:42;100916.13;;;19.48;100.00
12666;BME280;58531;59.050;17.416;2022-08-19T04:19:11;100911.94;;;19.47;100.00
12666;BME280;58531;59.050;17.416;2022-08-19T04:21:39;100924.94;;;19.32;100.00
12666;BME280;58531;59.050;17.416;2022-08-19T04:24:06;100927.16;;;19.34;100.00
12666;BME280;58531;59.050;17.416;2022-08-19T04:26:36;100933.56;;;19.42;100.00
12666;BME280;58531;59.050;17.416;2022-08-19T04:29:06;100925.44;;;19.31;100.00
12666;BME280;58531;59.050;17.416;2022-08-19T04:31:35;100924.47;;;19.39;100.00
12666;BME280;58531;59.050;17.416;2022-08-19T04:34:04;100925.94;;;19.40;100.00
12666;BME280;58531;59.050;17.416;2022-08-19T04:36:34;100925.47;;;19.47;100.00
12666;BME280;58531;59.050;17.416;2022-08-19T04:39:04;100927.22;;;19.50;100.00
12666;BME280;58531;59.050;17.416;2022-08-19T04:41:33;100929.69;;;19.54;100.00
12666;BME280;58531;59.050;17.416;2022-08-19T04:44:18;100926.22;;;19.48;100.00
12666;BME280;58531;59.050;17.416;2022-08-19T04:46:47;100924.00;;;19.46;100.00
12666;BME280;58531;59.050;17.416;2022-08-19T04:49:15;100930.13;;;19.41;100.00
12666;BME280;58531;59.050;17.416;2022-08-19T04:51:44;100926.88;;;19.26;100.00
12666;BME280;58531;59.050;17.416;2022-08-19T04:54:13;100927.84;;;19.23;100.00
12666;BME280;58531;59.050;17.416;2022-08-19T04:56:40;100930.81;;;19.25;100.00
12666;BME280;58531;59.050;17.416;2022-08-19T04:59:07;100930.56;;;19.23;100.00
12666;BME280;58531;59.050;17.416;2022-08-19T05:01:35;100920.78;;;19.42;100.00
12666;BME280;58531;59.050;17.416;2022-08-19T05:04:05;100922.78;;;19.53;100.00
12666;BME280;58531;59.050;17.416;2022-08-19T05:06:33;100913.47;;;19.59;100.00
12666;BME280;58531;59.050;17.416;2022-08-19T05:09:02;100913.69;;;19.56;99.82
12666;BME280;58531;59.050;17.416;2022-08-19T05:11:31;100913.94;;;19.52;100.00
12666;BME280;58531;59.050;17.416;2022-08-19T05:13:58;100905.06;;;19.57;100.00
12666;BME280;58531;59.050;17.416;2022-08-19T05:16:26;100905.34;;;19.81;99.29
12666;BME280;58531;59.050;17.416;2022-08-19T05:18:54;100908.31;;;19.78;98.78
12666;BME280;58531;59.050;17.416;2022-08-19T05:21:40;100900.44;;;19.80;97.89
12666;BME280;58531;59.050;17.416;2022-08-19T05:24:25;100903.13;;;19.74;99.13
12666;BME280;58531;59.050;17.416;2022-08-19T05:26:53;100906.41;;;20.00;98.00
12666;BME280;58531;59.050;17.416;2022-08-19T05:29:24;100895.56;;;20.22;96.77
12666;BME280;58531;59.050;17.416;2022-08-19T05:31:52;100901.97;;;20.30;95.75
12666;BME280;58531;59.050;17.416;2022-08-19T05:34:21;100908.13;;;20.25;95.46
12666;BME280;58531;59.050;17.416;2022-08-19T05:36:52;100899.50;;;20.32;94.79
12666;BME280;58531;59.050;17.416;2022-08-19T05:39:23;100906.88;;;20.53;94.21
12666;BME280;58531;59.050;17.416;2022-08-19T05:41:56;100904.91;;;20.43;93.66
12666;BME280;58531;59.050;17.416;2022-08-19T05:44:24;100905.91;;;20.62;93.02
12666;BME280;58531;59.050;17.416;2022-08-19T05:46:51;100904.41;;;20.61;92.03
12666;BME280;58531;59.050;17.416;2022-08-19T05:49:20;100897.50;;;20.49;92.57
12666;BME280;58531;59.050;17.416;2022-08-19T05:51:48;100906.91;;;20.48;92.49
12666;BME280;58531;59.050;17.416;2022-08-19T05:54:17;100906.16;;;20.53;92.42
12666;BME280;58531;59.050;17.416;2022-08-19T05:56:44;100899.97;;;20.63;92.00
12666;BME280;58531;59.050;17.416;2022-08-19T05:59:13;100899.94;;;20.69;91.68
12666;BME280;58531;59.050;17.416;2022-08-19T06:01:42;100900.66;;;20.75;91.21
12666;BME280;58531;59.050;17.416;2022-08-19T06:04:09;100906.56;;;20.95;90.65
12666;BME280;58531;59.050;17.416;2022-08-19T06:06:36;100904.09;;;21.03;90.20
12666;BME280;58531;59.050;17.416;2022-08-19T06:09:04;100902.25;;;21.22;88.56
12666;BME280;58531;59.050;17.416;2022-08-19T06:11:34;100907.69;;;21.22;88.75
12666;BME280;58531;59.050;17.416;2022-08-19T06:14:04;100903.97;;;21.30;88.03
12666;BME280;58531;59.050;17.416;2022-08-19T06:16:33;100900.69;;;21.43;86.69
12666;BME280;58531;59.050;17.416;2022-08-19T06:19:02;100904.94;;;21.38;86.79
12666;BME280;58531;59.050;17.416;2022-08-19T06:21:29;100903.69;;;21.34;87.20
12666;BME280;58531;59.050;17.416;2022-08-19T06:23:57;100906.84;;;21.48;87.85
12666;BME280;58531;59.050;17.416;2022-08-19T06:26:24;100904.66;;;21.87;85.72
12666;BME280;58531;59.050;17.416;2022-08-19T06:28:53;100921.38;;;21.97;85.64
12666;BME280;58531;59.050;17.416;2022-08-19T06:31:23;100919.31;;;21.73;85.34
12666;BME280;58531;59.050;17.416;2022-08-19T06:33:50;100917.63;;;22.05;85.11
12666;BME280;58531;59.050;17.416;2022-08-19T06:36:19;100920.06;;;21.74;85.60
12666;BME280;58531;59.050;17.416;2022-08-19T06:38:46;100919.25;;;21.84;85.41
12666;BME280;58531;59.050;17.416;2022-08-19T06:41:13;100932.25;;;22.02;83.58
12666;BME280;58531;59.050;17.416;2022-08-19T06:43:40;100933.75;;;21.98;83.87
12666;BME280;58531;59.050;17.416;2022-08-19T06:46:14;100933.19;;;22.10;83.66
12666;BME280;58531;59.050;17.416;2022-08-19T06:48:41;100929.75;;;22.39;82.50
12666;BME280;58531;59.050;17.416;2022-08-19T06:51:08;100929.28;;;22.65;81.18
12666;BME280;58531;59.050;17.416;2022-08-19T06:53:35;100926.09;;;22.84;80.06
12666;BME280;58531;59.050;17.416;2022-08-19T06:56:02;100923.22;;;23.43;77.86
12666;BME280;58531;59.050;17.416;2022-08-19T06:58:29;100929.69;;;23.59;76.20
12666;BME280;58531;59.050;17.416;2022-08-19T07:00:59;100932.34;;;23.46;76.08
12666;BME280;58531;59.050;17.416;2022-08-19T07:03:29;100938.69;;;23.11;77.50
12666;BME280;58531;59.050;17.416;2022-08-19T07:05:57;100931.75;;;23.71;75.63
12666;BME280;58531;59.050;17.416;2022-08-19T07:08:24;100944.06;;;23.96;74.02
12666;BME280;58531;59.050;17.416;2022-08-19T07:10:52;100945.22;;;24.63;72.31
12666;BME280;58531;59.050;17.416;2022-08-19T07:13:20;100947.31;;;25.48;68.56
12666;BME280;58531;59.050;17.416;2022-08-19T07:15:47;100955.94;;;25.26;68.18
12666;BME280;58531;59.050;17.416;2022-08-19T07:18:16;100942.50;;;25.28;69.16
12666;BME280;58531;59.050;17.416;2022-08-19T07:20:45;100945.63;;;25.32;71.48
12666;BME280;58531;59.050;17.416;2022-08-19T07:23:12;100934.91;;;25.47;68.36
12666;BME280;58531;59.050;17.416;2022-08-19T07:25:39;100941.16;;;25.68;68.31
12666;BME280;58531;59.050;17.416;2022-08-19T07:28:05;100930.03;;;26.20;65.73
12666;BME280;58531;59.050;17.416;2022-08-19T07:30:36;100932.97;;;26.70;64.26
12666;BME280;58531;59.050;17.416;2022-08-19T07:33:04;100932.72;;;27.16;63.07
12666;BME280;58531;59.050;17.416;2022-08-19T07:35:30;100932.31;;;27.55;61.94
12666;BME280;58531;59.050;17.416;2022-08-19T07:38:01;100932.31;;;26.84;61.33
12666;BME280;58531;59.050;17.416;2022-08-19T07:40:29;100926.19;;;27.34;61.51
12666;BME280;58531;59.050;17.416;2022-08-19T07:42:56;100925.47;;;27.99;59.88
12666;BME280;58531;59.050;17.416;2022-08-19T07:45:26;100926.97;;;28.45;57.04
12666;BME280;58531;59.050;17.416;2022-08-19T07:47:54;100932.03;;;27.73;59.75
12666;BME280;58531;59.050;17.416;2022-08-19T07:50:21;100933.19;;;28.60;58.43
12666;BME280;58531;59.050;17.416;2022-08-19T07:52:48;100928.38;;;28.91;57.40
12666;BME280;58531;59.050;17.416;2022-08-19T07:55:22;100924.78;;;28.43;58.75
12666;BME280;58531;59.050;17.416;2022-08-19T07:57:49;100936.63;;;27.86;59.88
12666;BME280;58531;59.050;17.416;2022-08-19T08:00:19;100927.09;;;27.72;60.54
12666;BME280;58531;59.050;17.416;2022-08-19T08:02:46;100928.69;;;27.60;58.72
12666;BME280;58531;59.050;17.416;2022-08-19T08:05:12;100922.03;;;27.48;61.12
12666;BME280;58531;59.050;17.416;2022-08-19T08:07:56;100923.59;;;26.86;61.02
12666;BME280;58531;59.050;17.416;2022-08-19T08:10:42;100923.66;;;27.01;62.00
12666;BME280;58531;59.050;17.416;2022-08-19T08:13:09;100918.19;;;27.01;62.10
12666;BME280;58531;59.050;17.416;2022-08-19T08:15:36;100921.19;;;27.18;60.19
12666;BME280;58531;59.050;17.416;2022-08-19T08:18:04;100929.44;;;26.90;62.46
12666;BME280;58531;59.050;17.416;2022-08-19T08:20:31;100928.13;;;26.83;62.04
12666;BME280;58531;59.050;17.416;2022-08-19T08:22:58;100927.69;;;27.00;60.52
12666;BME280;58531;59.050;17.416;2022-08-19T08:25:43;100915.13;;;27.12;60.21
12666;BME280;58531;59.050;17.416;2022-08-19T08:28:10;100924.50;;;26.88;60.92
12666;BME280;58531;59.050;17.416;2022-08-19T08:30:37;100914.84;;;27.30;60.49
12666;BME280;58531;59.050;17.416;2022-08-19T08:33:06;100920.25;;;27.51;59.75
12666;BME280;58531;59.050;17.416;2022-08-19T08:35:33;100924.22;;;27.42;60.08
12666;BME280;58531;59.050;17.416;2022-08-19T08:38:00;100926.38;;;27.36;60.03
12666;BME280;58531;59.050;17.416;2022-08-19T08:40:34;100928.69;;;27.60;61.02
12666;BME280;58531;59.050;17.416;2022-08-19T08:43:13;100934.59;;;27.79;58.14
12666;BME280;58531;59.050;17.416;2022-08-19T08:45:49;100928.38;;;27.71;58.90
12666;BME280;58531;59.050;17.416;2022-08-19T08:48:19;100928.31;;;27.64;58.90
12666;BME280;58531;59.050;17.416;2022-08-19T08:50:47;100933.41;;;27.52;58.85
12666;BME280;58531;59.050;17.416;2022-08-19T08:53:19;100928.56;;;27.88;59.62
12666;BME280;58531;59.050;17.416;2022-08-19T08:55:46;100926.97;;;28.15;59.07
12666;BME280;58531;59.050;17.416;2022-08-19T08:58:18;100920.38;;;28.25;58.04
12666;BME280;58531;59.050;17.416;2022-08-19T09:00:48;100916.69;;;28.08;57.40
12666;BME280;58531;59.050;17.416;2022-08-19T09:03:19;100938.31;;;28.04;57.75
12666;BME280;58531;59.050;17.416;2022-08-19T09:05:54;100916.69;;;28.08;57.29
12666;BME280;58531;59.050;17.416;2022-08-19T09:08:33;100924.56;;;27.96;55.41
12666;BME280;58531;59.050;17.416;2022-08-19T09:11:06;100923.97;;;27.75;56.90
12666;BME280;58531;59.050;17.416;2022-08-19T09:13:42;100927.13;;;28.02;56.85
12666;BME280;58531;59.050;17.416;2022-08-19T09:16:13;100916.88;;;28.10;56.85
12666;BME280;58531;59.050;17.416;2022-08-19T09:18:43;100915.63;;;28.26;56.44
12666;BME280;58531;59.050;17.416;2022-08-19T09:21:11;100923.13;;;28.18;57.44
12666;BME280;58531;59.050;17.416;2022-08-19T09:23:38;100925.53;;;28.29;55.22
12666;BME280;58531;59.050;17.416;2022-08-19T09:26:08;100921.47;;;28.15;55.06
12666;BME280;58531;59.050;17.416;2022-08-19T09:28:40;100914.88;;;28.18;55.83
12666;BME280;58531;59.050;17.416;2022-08-19T09:31:09;100913.59;;;28.49;56.49
12666;BME280;58531;59.050;17.416;2022-08-19T09:33:35;100915.06;;;28.20;53.15
12666;BME280;58531;59.050;17.416;2022-08-19T09:36:05;100919.28;;;28.21;52.18
12666;BME280;58531;59.050;17.416;2022-08-19T09:38:32;100921.84;;;28.26;51.67
12666;BME280;58531;59.050;17.416;2022-08-19T09:41:03;100913.81;;;28.43;52.11
12666;BME280;58531;59.050;17.416;2022-08-19T09:43:30;100916.34;;;28.34;51.86
12666;BME280;58531;59.050;17.416;2022-08-19T09:45:58;100909.06;;;28.29;52.96
12666;BME280;58531;59.050;17.416;2022-08-19T09:48:25;100909.00;;;28.59;54.53
12666;BME280;58531;59.050;17.416;2022-08-19T09:50:52;100910.63;;;28.77;53.72
12666;BME280;58531;59.050;17.416;2022-08-19T09:53:20;100904.50;;;29.08;53.02
12666;BME280;58531;59.050;17.416;2022-08-19T09:55:48;100912.28;;;29.34;51.92
12666;BME280;58531;59.050;17.416;2022-08-19T09:58:15;100907.84;;;29.46;50.49
12666;BME280;58531;59.050;17.416;2022-08-19T10:00:41;100902.34;;;29.38;49.58
12666;BME280;58531;59.050;17.416;2022-08-19T10:03:10;100894.88;;;29.31;49.71
12666;BME280;58531;59.050;17.416;2022-08-19T10:05:37;100906.81;;;29.26;49.95
12666;BME280;58531;59.050;17.416;2022-08-19T10:08:17;100905.88;;;29.31;49.85
12666;BME280;58531;59.050;17.416;2022-08-19T10:10:45;100907.72;;;29.29;49.70
12666;BME280;58531;59.050;17.416;2022-08-19T10:13:14;100909.75;;;29.21;44.78
12666;BME280;58531;59.050;17.416;2022-08-19T10:15:41;100900.63;;;29.18;47.63
12666;BME280;58531;59.050;17.416;2022-08-19T10:18:09;100904.66;;;29.17;46.19
12666;BME280;58531;59.050;17.416;2022-08-19T10:20:36;100903.88;;;29.24;45.45
12666;BME280;58531;59.050;17.416;2022-08-19T10:23:03;100904.75;;;29.34;45.63
12666;BME280;58531;59.050;17.416;2022-08-19T10:25:31;100899.69;;;29.23;45.78
12666;BME280;58531;59.050;17.416;2022-08-19T10:27:59;100903.38;;;29.18;44.87
12666;BME280;58531;59.050;17.416;2022-08-19T10:30:25;100900.69;;;29.35;45.21
12666;BME280;58531;59.050;17.416;2022-08-19T10:32:53;100897.31;;;29.59;44.92
12666;BME280;58531;59.050;17.416;2022-08-19T10:35:21;100897.22;;;29.42;44.40
12666;BME280;58531;59.050;17.416;2022-08-19T10:37:48;100895.31;;;29.13;45.99
12666;BME280;58531;59.050;17.416;2022-08-19T10:40:15;100891.91;;;29.37;46.89
12666;BME280;58531;59.050;17.416;2022-08-19T10:42:41;100891.50;;;29.48;47.46
12666;BME280;58531;59.050;17.416;2022-08-19T10:45:09;100883.97;;;29.48;47.29
12666;BME280;58531;59.050;17.416;2022-08-19T10:47:36;100891.44;;;29.55;46.14
12666;BME280;58531;59.050;17.416;2022-08-19T10:50:04;100884.47;;;29.54;46.32
12666;BME280;58531;59.050;17.416;2022-08-19T10:52:49;100871.72;;;29.34;45.92
12666;BME280;58531;59.050;17.416;2022-08-19T10:55:18;100873.91;;;29.36;47.12
12666;BME280;58531;59.050;17.416;2022-08-19T10:58:02;100875.50;;;29.14;46.65
12666;BME280;58531;59.050;17.416;2022-08-19T11:00:29;100878.44;;;29.16;47.38
12666;BME280;58531;59.050;17.416;2022-08-19T11:02:58;100876.31;;;29.32;47.23
12666;BME280;58531;59.050;17.416;2022-08-19T11:05:24;100875.19;;;29.42;46.93
12666;BME280;58531;59.050;17.416;2022-08-19T11:07:53;100861.78;;;29.46;45.67
12666;BME280;58531;59.050;17.416;2022-08-19T11:10:19;100870.78;;;29.71;46.21
12666;BME280;58531;59.050;17.416;2022-08-19T11:12:47;100879.06;;;29.71;45.83
12666;BME280;58531;59.050;17.416;2022-08-19T11:15:13;100873.03;;;29.65;44.55
12666;BME280;58531;59.050;17.416;2022-08-19T11:17:40;100876.56;;;29.58;44.90
12666;BME280;58531;59.050;17.416;2022-08-19T11:20:09;100871.56;;;29.64;44.53
12666;BME280;58531;59.050;17.416;2022-08-19T11:22:37;100872.94;;;29.80;45.26
12666;BME280;58531;59.050;17.416;2022-08-19T11:25:08;100871.06;;;29.83;44.18
12666;BME280;58531;59.050;17.416;2022-08-19T11:27:38;100873.69;;;30.05;44.26
12666;BME280;58531;59.050;17.416;2022-08-19T11:30:08;100873.78;;;30.15;43.94
12666;BME280;58531;59.050;17.416;2022-08-19T11:32:36;100871.19;;;30.17;43.95
12666;BME280;58531;59.050;17.416;2022-08-19T11:35:03;100874.69;;;29.93;43.20
12666;BME280;58531;59.050;17.416;2022-08-19T11:37:30;100875.38;;;29.93;43.53
12666;BME280;58531;59.050;17.416;2022-08-19T11:39:57;100867.66;;;29.99;43.78
12666;BME280;58531;59.050;17.416;2022-08-19T11:42:25;100862.09;;;30.07;42.92
12666;BME280;58531;59.050;17.416;2022-08-19T11:45:10;100852.84;;;30.12;42.42
12666;BME280;58531;59.050;17.416;2022-08-19T11:47:39;100858.31;;;30.19;43.43
12666;BME280;58531;59.050;17.416;2022-08-19T11:50:06;100862.81;;;30.07;43.12
12666;BME280;58531;59.050;17.416;2022-08-19T11:52:33;100866.41;;;30.17;42.29
12666;BME280;58531;59.050;17.416;2022-08-19T11:55:00;100867.53;;;30.14;42.75
12666;BME280;58531;59.050;17.416;2022-08-19T11:57:28;100871.47;;;30.28;42.97
12666;BME280;58531;59.050;17.416;2022-08-19T11:59:55;100866.31;;;30.08;42.24
12666;BME280;58531;59.050;17.416;2022-08-19T12:02:22;100870.13;;;30.12;43.33
12666;BME280;58531;59.050;17.416;2022-08-19T12:04:49;100867.06;;;30.25;42.83
12666;BME280;58531;59.050;17.416;2022-08-19T12:07:15;100869.50;;;30.38;42.56
12666;BME280;58531;59.050;17.416;2022-08-19T12:09:42;100865.44;;;30.39;41.59
12666;BME280;58531;59.050;17.416;2022-08-19T12:12:09;100862.81;;;30.48;41.87
12666;BME280;58531;59.050;17.416;2022-08-19T12:14:37;100862.91;;;30.17;42.13
12666;BME280;58531;59.050;17.416;2022-08-19T12:17:04;100861.38;;;30.06;43.73
12666;BME280;58531;59.050;17.416;2022-08-19T12:19:32;100870.59;;;30.01;42.07
12666;BME280;58531;59.050;17.416;2022-08-19T12:22:00;100850.22;;;29.72;43.32
12666;BME280;58531;59.050;17.416;2022-08-19T12:24:30;100857.41;;;29.68;42.16
12666;BME280;58531;59.050;17.416;2022-08-19T12:26:58;100849.56;;;29.64;43.83
12666;BME280;58531;59.050;17.416;2022-08-19T12:29:26;100845.66;;;29.92;42.98
12666;BME280;58531;59.050;17.416;2022-08-19T12:31:56;100851.81;;;30.07;42.43
12666;BME280;58531;59.050;17.416;2022-08-19T12:34:28;100848.53;;;30.01;42.42
12666;BME280;58531;59.050;17.416;2022-08-19T12:36:56;100847.66;;;29.74;43.22
12666;BME280;58531;59.050;17.416;2022-08-19T12:39:23;100846.28;;;29.83;43.26
12666;BME280;58531;59.050;17.416;2022-08-19T12:41:50;100850.50;;;29.84;43.62
12666;BME280;58531;59.050;17.416;2022-08-19T12:44:17;100849.09;;;29.75;41.90